createdAt,value
2019-02-11T00:01:43.767Z,94121.38
2019-02-11T00:04:10.039Z,94132.64
2019-02-11T00:06:36.662Z,94129.70
2019-02-11T00:09:06.072Z,94138.20
2019-02-11T00:11:37.643Z,94136.90
2019-02-11T00:14:04.013Z,94137.86
2019-02-11T00:16:30.144Z,94138.52
2019-02-11T00:18:56.734Z,94140.66
2019-02-11T00:21:23.065Z,94139.48
2019-02-11T00:23:49.362Z,94134.74
2019-02-11T00:26:20.254Z,94128.23
2019-02-11T00:28:46.467Z,94138.35
2019-02-11T00:31:15.527Z,94134.59
2019-02-11T00:33:42.804Z,94143.09
2019-02-11T00:36:09.107Z,94123.20
2019-02-11T00:38:35.317Z,94140.69
2019-02-11T00:41:01.737Z,94142.02
2019-02-11T00:43:35.274Z,94139.42
2019-02-11T00:48:49.382Z,94158.08
2019-02-11T00:51:16.750Z,94155.00
2019-02-11T00:53:42.888Z,94150.44
2019-02-11T00:56:11.931Z,94160.91
2019-02-11T00:58:40.773Z,94176.25
2019-02-11T01:01:07.043Z,94182.63
2019-02-11T01:03:33.412Z,94183.77
2019-02-11T01:05:59.682Z,94176.24
2019-02-11T01:08:25.815Z,94182.30
2019-02-11T01:10:52.319Z,94191.77
2019-02-11T01:13:18.600Z,94191.58
2019-02-11T01:15:46.739Z,94197.31
2019-02-11T01:18:12.946Z,94197.95
2019-02-11T01:20:39.186Z,94210.52
2019-02-11T01:23:05.312Z,94214.75
2019-02-11T01:25:31.703Z,94225.04
2019-02-11T01:31:05.291Z,94227.97
2019-02-11T01:33:31.448Z,94245.74
2019-02-11T01:35:57.639Z,94240.84
2019-02-11T01:38:23.748Z,94239.85
2019-02-11T01:40:50.005Z,94247.68
2019-02-11T01:43:18.337Z,94252.55
2019-02-11T01:45:45.590Z,94249.11
2019-02-11T01:48:11.675Z,94248.31
2019-02-11T01:50:37.878Z,94246.50
2019-02-11T01:53:03.977Z,94256.62
2019-02-11T01:55:30.188Z,94250.09
2019-02-11T01:57:56.447Z,94247.95
2019-02-11T02:00:22.660Z,94265.55
2019-02-11T02:02:48.848Z,94260.80
2019-02-11T02:05:15.031Z,94260.28
2019-02-11T02:07:41.223Z,94241.55
2019-02-11T02:10:12.962Z,94270.88
2019-02-11T02:12:40.271Z,94272.19
2019-02-11T02:15:08.765Z,94268.11
2019-02-11T02:17:34.997Z,94268.73
2019-02-11T02:20:01.343Z,94265.48
2019-02-11T02:22:29.511Z,94266.75
2019-02-11T02:24:55.643Z,94287.63
2019-02-11T02:27:21.849Z,94306.23
2019-02-11T02:29:47.946Z,94299.87
2019-02-11T02:32:14.141Z,94313.02
2019-02-11T02:34:40.297Z,94332.38
2019-02-11T02:37:06.540Z,94348.09
2019-02-11T02:39:32.816Z,94357.92
2019-02-11T02:41:59.022Z,94353.59
2019-02-11T02:44:25.116Z,94369.97
2019-02-11T02:46:51.305Z,94371.84
2019-02-11T02:49:17.437Z,94383.87
2019-02-11T02:51:43.702Z,94394.58
2019-02-11T02:54:09.966Z,94399.25
2019-02-11T02:56:36.512Z,94402.66
2019-02-11T02:59:02.615Z,94404.11
2019-02-11T03:01:28.812Z,94412.98
2019-02-11T03:03:54.901Z,94406.08
2019-02-11T03:06:21.087Z,94406.87
2019-02-11T03:08:47.222Z,94418.38
2019-02-11T03:11:13.447Z,94427.64
2019-02-11T03:13:39.715Z,94426.62
2019-02-11T03:16:05.981Z,94436.39
2019-02-11T03:18:32.176Z,94436.53
2019-02-11T03:20:58.317Z,94447.38
2019-02-11T03:23:24.582Z,94445.86
2019-02-11T03:25:52.046Z,94451.21
2019-02-11T03:28:18.496Z,94451.86
2019-02-11T03:30:44.572Z,94457.20
2019-02-11T03:33:10.772Z,94467.41
2019-02-11T03:35:36.884Z,94479.95
2019-02-11T03:38:03.106Z,94482.84
2019-02-11T03:40:29.338Z,94497.44
2019-02-11T03:42:58.213Z,94506.00
2019-02-11T03:45:24.428Z,94507.47
2019-02-11T03:47:50.581Z,94517.88
2019-02-11T03:50:16.804Z,94525.69
2019-02-11T03:52:42.992Z,94534.44
2019-02-11T03:55:09.142Z,94547.45
2019-02-11T03:57:35.322Z,94552.94
2019-02-11T04:00:02.074Z,94567.25
2019-02-11T04:02:28.227Z,94572.13
2019-02-11T04:04:54.340Z,94587.74
2019-02-11T04:07:20.494Z,94586.11
2019-02-11T04:09:46.626Z,94597.69
2019-02-11T04:12:12.817Z,94598.48
2019-02-11T04:14:38.912Z,94604.98
2019-02-11T04:17:05.104Z,94613.63
2019-02-11T04:19:31.191Z,94614.60
2019-02-11T04:22:01.222Z,94626.51
2019-02-11T04:24:27.299Z,94642.45
2019-02-11T04:26:53.564Z,94649.98
2019-02-11T04:29:19.660Z,94653.89
2019-02-11T04:31:45.869Z,94666.71
2019-02-11T04:34:11.953Z,94665.00
2019-02-11T04:36:38.312Z,94671.23
2019-02-11T04:39:04.722Z,94673.84
2019-02-11T04:41:32.743Z,94676.44
2019-02-11T04:43:59.963Z,94677.23
2019-02-11T04:46:26.200Z,94695.69
2019-02-11T04:48:52.310Z,94691.78
2019-02-11T04:51:18.451Z,94701.23
2019-02-11T04:53:44.591Z,94711.50
2019-02-11T04:56:10.832Z,94710.53
2019-02-11T04:58:37.636Z,94715.27
2019-02-11T05:01:03.758Z,94723.28
2019-02-11T05:03:29.955Z,94730.02
2019-02-11T05:05:56.447Z,94731.65
2019-02-11T05:08:22.692Z,94745.97
2019-02-11T05:10:49.440Z,94739.46
2019-02-11T05:13:15.563Z,94742.89
2019-02-11T05:15:43.875Z,94751.64
2019-02-11T05:18:10.077Z,94752.02
2019-02-11T05:20:36.239Z,94751.04
2019-02-11T05:23:02.397Z,94751.38
2019-02-11T05:25:28.580Z,94760.72
2019-02-11T05:27:54.784Z,94760.72
2019-02-11T05:30:20.953Z,94772.16
2019-02-11T05:32:47.115Z,94777.50
2019-02-11T05:35:14.057Z,94775.38
2019-02-11T05:37:40.215Z,94766.25
2019-02-11T05:40:09.509Z,94787.09
2019-02-11T05:42:35.880Z,94783.05
2019-02-11T05:45:02.592Z,94788.95
2019-02-11T05:47:28.748Z,94787.92
2019-02-11T05:49:54.894Z,94800.31
2019-02-11T05:52:21.382Z,94802.77
2019-02-11T05:54:48.644Z,94807.18
2019-02-11T05:57:15.591Z,94809.52
2019-02-11T05:59:42.082Z,94814.86
2019-02-11T06:02:09.017Z,94814.22
2019-02-11T06:04:36.288Z,94815.39
2019-02-11T06:07:02.610Z,94823.84
2019-02-11T06:09:28.788Z,94831.16
2019-02-11T06:11:57.131Z,94838.03
2019-02-11T06:14:24.519Z,94849.38
2019-02-11T06:16:50.750Z,94855.89
2019-02-11T06:19:17.748Z,94855.56
2019-02-11T06:21:44.014Z,94859.00
2019-02-11T06:24:11.215Z,94869.42
2019-02-11T06:26:37.365Z,94869.62
2019-02-11T06:29:04.345Z,94884.84
2019-02-11T06:31:30.745Z,94891.29
2019-02-11T06:33:57.160Z,94889.85
2019-02-11T06:36:23.731Z,94895.13
2019-02-11T06:38:50.735Z,94894.80
2019-02-11T06:41:16.835Z,94904.52
2019-02-11T06:43:43.074Z,94916.56
2019-02-11T06:46:12.275Z,94914.80
2019-02-11T06:48:38.568Z,94925.69
2019-02-11T06:51:05.290Z,94941.75
2019-02-11T06:53:31.595Z,94943.52
2019-02-11T06:55:58.488Z,94953.94
2019-02-11T06:58:24.633Z,94952.17
2019-02-11T07:00:50.840Z,94962.15
2019-02-11T07:03:17.138Z,94961.25
2019-02-11T07:05:43.729Z,94962.81
2019-02-11T07:08:09.960Z,94975.55
2019-02-11T07:10:36.743Z,94975.23
2019-02-11T07:13:03.046Z,94981.05
2019-02-11T07:15:29.282Z,94983.78
2019-02-11T07:17:56.515Z,94993.13
2019-02-11T07:20:25.089Z,94995.94
2019-02-11T07:22:51.245Z,95011.05
2019-02-11T07:25:17.382Z,95009.69
2019-02-11T07:27:43.532Z,95006.02
2019-02-11T07:30:11.296Z,95021.73
2019-02-11T07:32:37.844Z,95024.06
2019-02-11T07:35:04.241Z,95030.53
2019-02-11T07:37:30.834Z,95041.31
2019-02-11T07:39:56.932Z,95042.82
2019-02-11T07:42:31.521Z,95034.27
2019-02-11T07:44:58.389Z,95036.75
2019-02-11T07:47:24.613Z,95039.56
2019-02-11T07:49:51.710Z,95044.70
2019-02-11T07:52:17.889Z,95049.65
2019-02-11T07:54:44.702Z,95046.41
2019-02-11T07:57:10.916Z,95050.89
2019-02-11T07:59:37.019Z,95054.54
2019-02-11T08:02:03.851Z,95057.81
2019-02-11T08:04:29.998Z,95057.09
2019-02-11T08:06:56.398Z,95063.13
2019-02-11T08:09:22.533Z,95073.45
2019-02-11T08:11:49.895Z,95072.98
2019-02-11T08:14:16.040Z,95087.52
2019-02-11T08:16:42.377Z,95087.27
2019-02-11T08:19:08.842Z,95085.56
2019-02-11T08:21:35.005Z,95091.35
2019-02-11T08:24:04.043Z,95095.20
2019-02-11T08:26:30.235Z,95104.06
2019-02-11T08:28:57.777Z,95113.63
2019-02-11T08:31:23.997Z,95109.02
2019-02-11T08:33:50.738Z,95116.11
2019-02-11T08:36:16.969Z,95124.13
2019-02-11T08:38:43.116Z,95113.57
2019-02-11T08:41:09.740Z,95116.61
2019-02-11T08:43:35.886Z,95115.78
2019-02-11T08:46:02.880Z,95119.56
2019-02-11T08:48:29.067Z,95120.12
2019-02-11T08:50:55.489Z,95120.33
2019-02-11T08:53:21.676Z,95121.17
2019-02-11T08:55:47.808Z,95131.59
2019-02-11T08:58:15.016Z,95138.69
2019-02-11T09:00:41.252Z,95139.09
2019-02-11T09:03:07.809Z,95149.66
2019-02-11T09:05:34.045Z,95146.94
2019-02-11T09:08:00.941Z,95148.51
2019-02-11T09:10:27.325Z,95163.81
2019-02-11T09:12:53.485Z,95179.93
2019-02-11T09:15:19.627Z,95184.89
2019-02-11T09:17:45.822Z,95195.05
2019-02-11T09:20:12.133Z,95198.23
2019-02-11T09:22:38.715Z,95205.80
2019-02-11T09:25:10.556Z,95210.03
2019-02-11T09:27:36.911Z,95216.05
2019-02-11T09:30:12.637Z,95219.75
2019-02-11T09:32:42.590Z,95214.54
2019-02-11T09:35:08.794Z,95232.92
2019-02-11T09:37:38.829Z,95234.23
2019-02-11T09:40:12.385Z,95236.50
2019-02-11T09:42:40.933Z,95238.73
2019-02-11T09:45:12.413Z,95249.80
2019-02-11T09:47:38.565Z,95248.84
2019-02-11T09:50:24.099Z,95262.58
2019-02-11T09:52:50.831Z,95258.49
2019-02-11T09:55:20.378Z,95271.20
2019-02-11T09:57:46.584Z,95289.88
2019-02-11T10:00:12.795Z,95275.52
2019-02-11T10:02:38.989Z,95274.14
2019-02-11T10:05:05.321Z,95307.73
2019-02-11T10:07:31.656Z,95297.43
2019-02-11T10:09:57.753Z,95300.94
2019-02-11T10:12:23.979Z,95312.63
2019-02-11T10:14:50.176Z,95313.63
2019-02-11T10:17:16.725Z,95311.06
2019-02-11T10:19:42.914Z,95316.23
2019-02-11T10:22:08.987Z,95317.85
2019-02-11T10:24:35.812Z,95318.27
2019-02-11T10:27:01.987Z,95318.84
2019-02-11T10:29:28.805Z,95330.25
2019-02-11T10:31:54.946Z,95326.28
2019-02-11T10:34:21.073Z,95335.89
2019-02-11T10:36:48.961Z,95330.33
2019-02-11T10:39:15.110Z,95311.66
2019-02-11T10:41:41.285Z,95327.27
2019-02-11T10:44:07.480Z,95334.70
2019-02-11T10:46:33.943Z,95327.91
2019-02-11T10:49:00.212Z,95328.81
2019-02-11T10:51:26.471Z,95323.76
2019-02-11T10:53:52.571Z,95324.09
2019-02-11T10:56:22.431Z,95335.72
2019-02-11T10:58:48.605Z,95327.41
2019-02-11T11:01:14.795Z,95344.34
2019-02-11T11:03:40.897Z,95342.77
2019-02-11T11:06:07.079Z,95348.86
2019-02-11T11:08:35.066Z,95343.06
2019-02-11T11:11:01.253Z,95347.56
2019-02-11T11:13:30.552Z,95354.55
2019-02-11T11:15:59.221Z,95370.72
2019-02-11T11:18:25.383Z,95369.56
2019-02-11T11:20:51.545Z,95377.52
2019-02-11T11:23:18.950Z,95377.44
2019-02-11T11:25:45.213Z,95394.20
2019-02-11T11:28:11.836Z,95391.59
2019-02-11T11:30:40.905Z,95390.54
2019-02-11T11:33:07.343Z,95403.34
2019-02-11T11:35:34.284Z,95404.52
2019-02-11T11:38:00.436Z,95410.70
2019-02-11T11:40:26.570Z,95411.05
2019-02-11T11:42:54.923Z,95411.76
2019-02-11T11:45:21.140Z,95411.97
2019-02-11T11:47:47.411Z,95416.59
2019-02-11T11:50:14.404Z,95407.80
2019-02-11T11:52:40.550Z,95419.08
2019-02-11T11:55:23.495Z,95424.77
2019-02-11T11:57:49.616Z,95427.62
2019-02-11T12:00:28.254Z,95434.02
2019-02-11T12:03:02.692Z,95433.05
2019-02-11T12:05:24.270Z,95434.18
2019-02-11T12:07:50.445Z,95436.14
2019-02-11T12:10:17.462Z,95444.09
2019-02-11T12:12:43.576Z,95450.23
2019-02-11T12:15:11.887Z,95432.37
2019-02-11T12:17:37.985Z,95456.97
2019-02-11T12:20:08.544Z,95471.28
2019-02-11T12:22:34.676Z,95457.94
2019-02-11T12:25:01.869Z,95472.89
2019-02-11T12:27:28.125Z,95473.86
2019-02-11T12:29:56.381Z,95484.98
2019-02-11T12:32:24.265Z,95482.25
2019-02-11T12:34:50.682Z,95493.19
2019-02-11T12:37:18.031Z,95489.62
2019-02-11T12:39:44.161Z,95504.98
2019-02-11T12:42:10.355Z,95478.13
2019-02-11T12:44:38.189Z,95493.55
2019-02-11T12:47:13.844Z,95515.50
2019-02-11T12:49:35.605Z,95517.41
2019-02-11T12:52:02.080Z,95514.19
2019-02-11T12:54:28.211Z,95513.51
2019-02-11T12:56:54.417Z,95521.09
2019-02-11T12:59:21.896Z,95513.32
2019-02-11T13:01:48.199Z,95529.62
2019-02-11T13:04:14.340Z,95531.28
2019-02-11T13:06:40.709Z,95551.47
2019-02-11T13:09:07.006Z,95552.97
2019-02-11T13:11:34.074Z,95550.27
2019-02-11T13:14:00.297Z,95555.66
2019-02-11T13:16:26.522Z,95558.05
2019-02-11T13:18:52.739Z,95553.22
2019-02-11T13:21:18.876Z,95560.02
2019-02-11T13:23:45.944Z,95564.67
2019-02-11T13:26:12.071Z,95574.22
2019-02-11T13:28:39.955Z,95574.82
2019-02-11T13:31:06.113Z,95592.23
2019-02-11T13:33:32.300Z,95593.83
2019-02-11T13:35:58.437Z,95595.34
2019-02-11T13:38:24.645Z,95605.34
2019-02-11T13:40:51.098Z,95595.73
2019-02-11T13:43:18.271Z,95611.09
2019-02-11T13:45:44.859Z,95585.02
2019-02-11T13:48:11.023Z,95607.30
2019-02-11T13:50:37.283Z,95608.81
2019-02-11T13:53:03.550Z,95610.64
2019-02-11T13:55:31.328Z,95618.77
2019-02-11T13:57:59.877Z,95629.72
2019-02-11T14:00:36.746Z,95632.25
2019-02-11T14:03:05.321Z,95627.78
2019-02-11T14:05:32.915Z,95637.64
2019-02-11T14:07:59.087Z,95638.69
2019-02-11T14:10:25.982Z,95645.94
2019-02-11T14:12:53.201Z,95646.78
2019-02-11T14:15:20.762Z,95647.46
2019-02-11T14:17:47.665Z,95652.40
2019-02-11T14:20:17.819Z,95644.01
2019-02-11T14:22:44.057Z,95658.13
2019-02-11T14:25:11.074Z,95651.13
2019-02-11T14:27:37.395Z,95661.33
2019-02-11T14:30:07.247Z,95674.98
2019-02-11T14:32:35.365Z,95677.97
2019-02-11T14:35:02.280Z,95705.72
2019-02-11T14:37:30.806Z,95726.23
2019-02-11T14:39:58.005Z,95720.89
2019-02-11T14:42:24.499Z,95717.89
2019-02-11T14:44:53.843Z,95724.36
2019-02-11T14:47:20.174Z,95729.15
2019-02-11T14:49:49.416Z,95722.40
2019-02-11T14:52:15.703Z,95729.89
2019-02-11T14:54:43.073Z,95733.16
2019-02-11T14:57:11.390Z,95728.16
2019-02-11T14:59:43.019Z,95730.65
2019-02-11T15:02:09.446Z,95740.81
2019-02-11T15:04:37.876Z,95747.83
2019-02-11T15:07:04.095Z,95748.31
2019-02-11T15:09:30.981Z,95750.20
2019-02-11T15:11:57.197Z,95759.24
2019-02-11T15:14:24.105Z,95749.05
2019-02-11T15:16:50.218Z,95749.73
2019-02-11T15:19:16.533Z,95749.63
2019-02-11T15:21:45.362Z,95752.13
2019-02-11T15:24:11.824Z,95767.08
2019-02-11T15:26:38.824Z,95789.62
2019-02-11T15:29:05.162Z,95792.48
2019-02-11T15:31:31.262Z,95815.73
2019-02-11T15:33:57.454Z,95793.30
2019-02-11T15:36:23.537Z,95797.88
2019-02-11T15:38:50.142Z,95801.79
2019-02-11T15:41:16.283Z,95804.13
2019-02-11T15:43:43.578Z,95809.22
2019-02-11T15:46:09.737Z,95805.50
2019-02-11T15:48:42.987Z,95818.05
2019-02-11T15:51:05.903Z,95822.77
2019-02-11T15:53:32.075Z,95826.31
2019-02-11T15:56:07.764Z,95831.48
2019-02-11T15:58:28.757Z,95846.19
2019-02-11T16:00:55.139Z,95841.77
2019-02-11T16:03:21.289Z,95852.88
2019-02-11T16:05:49.807Z,95863.05
2019-02-11T16:08:15.575Z,95865.88
2019-02-11T16:10:41.879Z,95871.20
2019-02-11T16:13:08.113Z,95878.23
2019-02-11T16:15:34.425Z,95873.26
2019-02-11T16:18:00.743Z,95879.55
2019-02-11T16:20:26.933Z,95885.39
2019-02-11T16:22:53.066Z,95888.13
2019-02-11T16:25:28.083Z,95899.74
2019-02-11T16:27:54.512Z,95900.83
2019-02-11T16:30:20.799Z,95901.45
2019-02-11T16:32:47.008Z,95910.92
2019-02-11T16:35:17.003Z,95914.72
2019-02-11T16:37:43.107Z,95927.05
2019-02-11T16:40:12.843Z,95956.89
2019-02-11T16:42:39.032Z,95969.16
2019-02-11T16:45:07.937Z,95975.83
2019-02-11T16:47:34.269Z,95982.39
2019-02-11T16:50:00.610Z,95986.89
2019-02-11T16:52:26.921Z,95983.77
2019-02-11T16:54:53.257Z,95985.80
2019-02-11T16:57:19.630Z,96000.06
2019-02-11T16:59:47.707Z,96004.81
2019-02-11T17:02:13.964Z,96000.06
2019-02-11T17:04:40.257Z,96008.92
2019-02-11T17:07:07.150Z,96009.39
2019-02-11T17:09:33.556Z,96018.89
2019-02-11T17:12:00.073Z,96021.64
2019-02-11T17:14:26.562Z,96035.61
2019-02-11T17:16:52.759Z,96036.17
2019-02-11T17:19:19.123Z,96036.42
2019-02-11T17:21:45.279Z,96053.25
2019-02-11T17:24:11.582Z,96051.84
2019-02-11T17:26:37.957Z,96057.27
2019-02-11T17:29:04.161Z,96061.56
2019-02-11T17:31:30.391Z,96072.44
2019-02-11T17:33:56.688Z,96084.27
2019-02-11T17:36:22.781Z,96094.58
2019-02-11T17:38:49.653Z,96089.58
2019-02-11T17:41:15.882Z,96101.40
2019-02-11T17:43:43.019Z,96105.00
2019-02-11T17:46:09.161Z,96111.05
2019-02-11T17:48:35.306Z,96115.06
2019-02-11T17:51:01.846Z,96111.16
2019-02-11T17:53:27.997Z,96125.59
2019-02-11T17:58:53.310Z,96133.30
2019-02-11T18:01:38.603Z,96141.11
2019-02-11T18:49:07.391Z,96232.19
2019-02-11T18:56:58.694Z,96251.93
2019-02-11T18:59:31.912Z,96252.95
2019-02-11T19:12:49.733Z,96291.11
2019-02-11T19:20:47.489Z,96295.80
2019-02-11T19:23:13.659Z,96303.61
2019-02-11T19:36:24.491Z,96325.57
2019-02-11T19:39:10.198Z,96331.04
2019-02-11T20:05:02.489Z,96384.74
2019-02-11T20:07:43.368Z,96386.41
2019-02-11T20:15:35.000Z,96396.17
2019-02-11T20:18:08.029Z,96403.41
2019-02-11T20:26:28.334Z,96425.43
2019-02-11T20:29:01.261Z,96431.00
2019-02-11T20:34:15.044Z,96445.48
2019-02-11T20:39:42.055Z,96445.12
2019-02-11T20:44:54.644Z,96446.34
2019-02-11T21:39:27.165Z,96514.16
2019-02-11T21:42:06.427Z,96515.83
2019-02-11T21:47:18.396Z,96521.83
2019-02-11T21:49:58.004Z,96518.13
2019-02-11T22:03:09.909Z,96541.55
2019-02-11T22:05:42.367Z,96557.16
2019-02-11T22:16:12.072Z,96568.86
2019-02-11T22:18:58.044Z,96568.74
2019-02-11T22:21:44.533Z,96562.72
2019-02-11T22:24:31.017Z,96561.95
2019-02-11T22:27:17.690Z,96566.20
2019-02-11T22:32:57.409Z,96564.51
2019-02-11T22:35:43.801Z,96569.14
2019-02-11T22:56:44.324Z,96565.83
2019-02-11T22:59:23.405Z,96567.05
2019-02-11T23:02:09.513Z,96566.31
2019-02-11T23:25:38.221Z,96604.10
2019-02-11T23:55:32.130Z,96631.94
2019-02-11T23:58:05.115Z,96639.66
